Aviation Digital Data Service (ADDS)

Output produced by TAFs form (1010 UTC 18 January 2017)
found at http://aviationweather.gov/adds/tafs/
 
KASE 180540Z 1806/1906 20005KT P6SM VCFG FEW040 
     FM181800 34005KT P6SM FEW050 SCT080 
     FM190100 23005KT P6SM FEW120